Time;durP1;ratioP1;P1;durP2;ratioP2;P2;SDS_P1;SDS_P2;PMS_P1;PMS_P2;Temp;Humidity;BMP_temperature;BMP_pressure;BME280_temperature;BME280_humidity;BME280_pressure;Samples;Min_cycle;Max_cycle;Signal;HPM_P1;HPM_P2
2022/09/19 00:00:43;;;;;;;1.27;0.30;;;;;;;11.21;73.59;98940.37;1737432;80;21083;-61
2022/09/19 00:03:10;;;;;;;1.95;0.40;;;;;;;11.16;73.23;98933.45;1737219;80;21547;-60
2022/09/19 00:05:40;;;;;;;1.02;0.30;;;;;;;11.11;73.21;98941.85;1731608;80;21083;-62
2022/09/19 00:08:08;;;;;;;0.70;0.20;;;;;;;11.10;73.11;98936.25;1728765;80;21118;-62
2022/09/19 00:10:40;;;;;;;0.82;0.30;;;;;;;11.16;73.00;98940.03;1732966;80;21059;-63
2022/09/19 00:13:08;;;;;;;0.75;0.28;;;;;;;11.16;72.27;98963.72;1734451;80;21118;-63
2022/09/19 00:15:37;;;;;;;1.22;0.33;;;;;;;11.17;72.44;98948.77;1737591;80;21090;-61
2022/09/19 00:18:03;;;;;;;1.50;0.33;;;;;;;11.09;72.29;98949.56;1732628;80;21083;-64
2022/09/19 00:20:31;;;;;;;1.98;0.47;;;;;;;11.05;72.54;98954.34;1732760;80;21090;-65
2022/09/19 00:25:44;;;;;;;2.90;0.47;;;;;;;11.15;72.51;98948.94;1748606;80;21054;-66
2022/09/19 00:28:10;;;;;;;1.12;0.30;;;;;;;11.15;72.52;98960.78;1743281;80;21090;-66
2022/09/19 00:30:39;;;;;;;1.47;0.40;;;;;;;11.12;72.49;98961.09;1743860;80;21254;-62
2022/09/19 00:33:08;;;;;;;1.15;0.30;;;;;;;11.07;72.39;98956.80;1747186;80;20991;-64
2022/09/19 00:35:34;;;;;;;1.77;0.37;;;;;;;11.07;72.56;98962.07;1750164;80;21066;-65
2022/09/19 00:38:01;;;;;;;0.70;0.25;;;;;;;11.14;72.64;98959.12;1741750;80;21015;-64
2022/09/19 00:40:28;;;;;;;2.42;0.50;;;;;;;11.18;72.65;98970.15;1746729;80;21082;-61
2022/09/19 00:42:54;;;;;;;2.02;0.50;;;;;;;11.15;72.78;98963.41;1750300;80;21120;-66
2022/09/19 00:45:21;;;;;;;1.50;0.30;;;;;;;11.12;73.06;98957.14;1748174;80;21063;-63
2022/09/19 00:47:49;;;;;;;1.75;0.40;;;;;;;11.12;73.32;98972.44;1746263;80;21177;-46
2022/09/19 00:50:21;;;;;;;2.20;0.55;;;;;;;11.17;73.39;98967.20;1725249;80;21122;-46
2022/09/19 00:53:08;;;;;;;2.08;0.68;;;;;;;11.21;73.56;98967.20;1745885;80;21093;-46
2022/09/19 00:55:37;;;;;;;2.30;0.72;;;;;;;11.16;73.80;98965.04;1743274;80;21708;-46
2022/09/19 00:58:18;;;;;;;3.58;0.85;;;;;;;11.13;74.05;98958.80;1749954;80;21078;-45
2022/09/19 01:00:45;;;;;;;2.05;0.75;;;;;;;11.14;74.31;98982.81;1743423;80;21106;-46
2022/09/19 01:03:11;;;;;;;2.50;0.72;;;;;;;11.22;74.29;98965.72;1744805;80;21597;-45
2022/09/19 01:06:09;;;;;;;2.80;1.02;;;;;;;11.26;74.27;98971.02;1698143;82;21095;-45
2022/09/19 01:09:00;;;;;;;2.40;0.80;;;;;;;11.23;74.51;98973.96;1741892;80;21122;-46
2022/09/19 01:11:38;;;;;;;2.35;0.80;;;;;;;11.20;74.76;98981.36;1746294;80;21070;-45
2022/09/19 01:14:58;;;;;;;2.17;0.68;;;;;;;11.21;74.90;98985.13;1750235;80;21007;-45
2022/09/19 01:17:33;;;;;;;3.17;1.00;;;;;;;11.26;74.91;98989.44;1729065;81;21170;-46
2022/09/19 01:20:11;;;;;;;3.37;0.93;;;;;;;11.29;74.96;98979.06;1721455;81;21599;-47
2022/09/19 01:23:15;;;;;;;3.60;0.70;;;;;;;11.28;75.02;98974.77;1741229;80;21617;-46
2022/09/19 01:26:21;;;;;;;4.28;1.25;;;;;;;11.27;75.10;98975.77;1747894;80;21054;-47
2022/09/19 01:28:57;;;;;;;2.90;1.05;;;;;;;11.32;74.97;98975.61;1735625;81;21042;-47
2022/09/19 01:31:30;;;;;;;3.15;1.05;;;;;;;11.36;74.77;98973.47;1743348;80;20999;-46
2022/09/19 01:37:47;;;;;;;3.50;1.25;;;;;;;11.46;74.74;98979.41;1784184;78;22538;-47
2022/09/19 01:40:14;;;;;;;3.35;1.27;;;;;;;11.55;74.08;98984.22;1688635;83;21557;-47
2022/09/19 01:42:57;;;;;;;3.62;1.30;;;;;;;11.60;73.77;98975.33;1666208;83;21154;-47
2022/09/19 01:45:36;;;;;;;2.90;1.20;;;;;;;11.66;73.66;98981.73;1696039;83;21590;-47
2022/09/19 01:48:44;;;;;;;3.83;1.40;;;;;;;11.67;73.46;98983.40;1696461;83;21067;-48
2022/09/19 01:51:31;;;;;;;3.33;1.25;;;;;;;11.65;73.42;98992.78;1689599;83;21573;-47
2022/09/19 01:54:32;;;;;;;2.50;1.02;;;;;;;11.69;73.39;98997.23;1716137;81;21426;-47
2022/09/19 01:57:24;;;;;;;2.95;1.37;;;;;;;11.75;73.06;99002.33;1701559;83;22060;-47
2022/09/19 02:00:10;;;;;;;4.08;1.70;;;;;;;11.76;72.97;98998.20;1696670;83;21026;-45
2022/09/19 02:03:10;;;;;;;4.03;1.77;;;;;;;11.75;72.89;98989.99;1695811;83;21590;-46
2022/09/19 02:06:02;;;;;;;4.97;1.53;;;;;;;11.71;73.14;99003.15;1696167;83;21079;-47
2022/09/19 02:08:35;;;;;;;4.42;1.60;;;;;;;11.76;73.06;98996.08;1698765;83;21460;-47
2022/09/19 02:11:09;;;;;;;3.65;1.40;;;;;;;11.82;72.95;98999.38;1701355;82;21152;-47
2022/09/19 02:13:37;;;;;;;3.70;1.60;;;;;;;11.86;72.84;99008.09;1710193;82;21569;-51
2022/09/19 02:16:10;;;;;;;3.80;1.55;;;;;;;11.87;72.73;99015.02;1691122;83;21057;-46
2022/09/19 02:18:51;;;;;;;3.50;1.70;;;;;;;11.86;72.58;99015.18;1699038;83;21063;-46
2022/09/19 02:21:25;;;;;;;3.87;1.60;;;;;;;11.88;72.31;99025.91;1686952;83;21529;-47
2022/09/19 02:23:53;;;;;;;4.60;1.90;;;;;;;11.93;72.10;99024.10;1699779;82;22712;-47
2022/09/19 02:26:21;;;;;;;4.20;1.95;;;;;;;11.97;72.12;99022.80;1700990;82;21055;-46
2022/09/19 02:28:54;;;;;;;3.95;1.85;;;;;;;11.96;71.86;99024.28;1703481;82;21095;-47
2022/09/19 02:31:26;;;;;;;3.98;1.75;;;;;;;11.91;72.03;99032.67;1696104;82;21087;-47
2022/09/19 02:33:59;;;;;;;4.28;1.80;;;;;;;11.93;72.12;99045.19;1675950;83;21079;-46
2022/09/19 02:36:43;;;;;;;5.53;1.75;;;;;;;11.95;71.84;99051.11;1689389;83;21269;-48
2022/09/19 02:39:25;;;;;;;5.17;2.15;;;;;;;11.96;72.03;99055.91;1746933;80;21039;-47
2022/09/19 02:42:05;;;;;;;5.70;1.98;;;;;;;11.90;72.20;99056.02;1741027;80;21026;-47
2022/09/19 02:44:43;;;;;;;;;;;;;;;11.88;72.31;99058.00;1749042;80;21161;-47
2022/09/19 02:47:18;;;;;;;5.28;1.80;;;;;;;11.89;72.32;99069.70;1744004;80;20227;-47
2022/09/19 02:49:55;;;;;;;4.30;2.00;;;;;;;11.94;72.29;99078.48;1743620;80;21141;-47
2022/09/19 02:52:31;;;;;;;5.90;1.95;;;;;;;11.96;72.02;99087.55;1718196;82;21116;-47
2022/09/19 02:55:13;;;;;;;6.37;2.37;;;;;;;11.93;71.95;99083.91;1741288;80;21026;-46
2022/09/19 02:57:45;;;;;;;5.47;1.90;;;;;;;11.87;72.06;99090.14;1722228;82;21028;-48
2022/09/19 03:00:13;;;;;;;4.22;2.10;;;;;;;11.87;71.82;99109.09;1745222;80;21126;-47
2022/09/19 03:02:54;;;;;;;3.62;1.82;;;;;;;11.94;71.62;99090.34;1739933;80;21133;-47
2022/09/19 03:05:19;;;;;;;4.22;2.00;;;;;;;11.95;71.66;99106.47;1738013;80;21074;-47
2022/09/19 03:07:52;;;;;;;6.28;2.90;;;;;;;11.93;71.56;99108.95;1752339;80;22545;-48
2022/09/19 03:10:22;;;;;;;4.70;2.27;;;;;;;11.88;71.67;99112.04;1746023;80;21069;-48
2022/09/19 03:13:00;;;;;;;4.20;1.90;;;;;;;11.86;71.68;99120.61;1747395;80;21368;-47
2022/09/19 03:15:43;;;;;;;6.33;2.45;;;;;;;11.90;71.63;99110.06;1759287;80;22148;-47
2022/09/19 03:18:13;;;;;;;5.53;2.50;;;;;;;11.92;71.53;99143.73;1732799;80;21058;-48
2022/09/19 03:20:42;;;;;;;4.83;2.05;;;;;;;11.90;71.54;99114.86;1740400;80;21475;-47
2022/09/19 03:23:08;;;;;;;6.28;2.25;;;;;;;11.86;71.72;99125.88;1730924;80;21613;-47
2022/09/19 03:25:38;;;;;;;4.05;1.98;;;;;;;11.87;71.76;99122.27;1755409;80;21041;-47
2022/09/19 03:28:05;;;;;;;4.50;2.10;;;;;;;11.88;71.39;99124.75;1749279;80;21173;-47
2022/09/19 03:30:33;;;;;;;5.83;2.50;;;;;;;11.86;71.35;99154.87;1748024;80;21305;-48
2022/09/19 03:33:00;;;;;;;5.70;2.47;;;;;;;11.82;71.43;99133.29;1753848;80;21015;-47
2022/09/19 03:35:27;;;;;;;5.45;1.95;;;;;;;11.79;71.62;99138.06;1752051;80;21079;-47
2022/09/19 03:37:54;;;;;;;6.25;2.22;;;;;;;11.78;71.68;99142.48;1727881;80;21120;-48
2022/09/19 03:40:25;;;;;;;5.05;2.35;;;;;;;11.81;71.59;99157.98;1755048;80;21290;-50
2022/09/19 03:42:52;;;;;;;7.87;2.58;;;;;;;11.84;71.42;99166.89;1726289;80;21090;-49
2022/09/19 03:45:19;;;;;;;6.20;2.70;;;;;;;11.84;71.18;99160.30;1755358;80;21259;-48
2022/09/19 03:47:46;;;;;;;4.50;2.35;;;;;;;11.82;71.29;99172.83;1757927;80;21065;-48
2022/09/19 03:50:13;;;;;;;4.87;2.00;;;;;;;11.83;71.36;99172.32;1755652;80;21009;-48
2022/09/19 03:52:44;;;;;;;6.72;2.17;;;;;;;11.86;70.87;99178.59;1741491;80;21139;-48
2022/09/19 03:55:10;;;;;;;6.22;2.72;;;;;;;11.89;70.71;99180.91;1744440;80;21063;-48
2022/09/19 03:57:38;;;;;;;4.85;2.55;;;;;;;11.88;70.53;99191.11;1747332;80;21117;-48
2022/09/19 04:00:07;;;;;;;6.35;2.47;;;;;;;11.87;70.57;99188.98;1744646;80;21075;-49
2022/09/19 04:02:35;;;;;;;4.28;2.17;;;;;;;11.85;70.70;99210.72;1740755;80;21510;-47
2022/09/19 04:05:02;;;;;;;6.37;2.10;;;;;;;11.86;70.47;99197.86;1742910;80;21106;-47
2022/09/19 04:07:30;;;;;;;5.58;2.27;;;;;;;11.93;70.50;99205.17;1742385;80;21102;-48
2022/09/19 04:09:56;;;;;;;5.20;2.42;;;;;;;11.98;70.25;99218.19;1739871;80;21023;-48
2022/09/19 04:12:23;;;;;;;4.78;2.40;;;;;;;11.97;69.94;99217.03;1742441;80;21087;-47
2022/09/19 04:14:51;;;;;;;6.37;2.62;;;;;;;11.95;69.98;99226.91;1743351;80;21050;-47
2022/09/19 04:17:18;;;;;;;5.03;2.20;;;;;;;11.91;70.03;99218.50;1742163;80;21143;-48
2022/09/19 04:19:44;;;;;;;6.65;2.40;;;;;;;11.93;69.96;99229.70;1742578;80;20985;-48
2022/09/19 04:22:28;;;;;;;4.42;2.42;;;;;;;11.98;69.75;99237.96;1720443;80;21051;-48
2022/09/19 04:25:10;;;;;;;5.40;2.85;;;;;;;11.99;69.43;99249.36;1736094;80;21062;-47
2022/09/19 04:27:38;;;;;;;6.53;2.60;;;;;;;11.96;69.57;99240.44;1738781;80;21101;-48
2022/09/19 04:30:07;;;;;;;5.22;2.75;;;;;;;11.94;69.92;99244.55;1734922;80;21803;-48
2022/09/19 04:32:34;;;;;;;4.75;2.35;;;;;;;11.93;69.86;99257.39;1721406;80;21503;-47
2022/09/19 04:35:01;;;;;;;4.47;2.58;;;;;;;11.96;69.64;99248.35;1739280;80;22686;-47
2022/09/19 04:37:29;;;;;;;5.83;2.60;;;;;;;12.02;69.37;99274.91;1737944;80;21039;-47
2022/09/19 04:39:58;;;;;;;4.80;2.47;;;;;;;12.05;69.17;99253.50;1731895;80;21416;-47
2022/09/19 04:42:26;;;;;;;5.28;2.83;;;;;;;12.05;69.26;99261.41;1734094;80;21126;-49
2022/09/19 04:44:53;;;;;;;5.90;3.02;;;;;;;12.05;69.30;99273.74;1737405;80;21024;-47
2022/09/19 04:47:21;;;;;;;6.47;2.67;;;;;;;12.03;69.32;99262.03;1737871;80;21166;-48
2022/09/19 04:49:49;;;;;;;6.22;2.62;;;;;;;12.05;69.47;99264.05;1732536;80;21055;-47
2022/09/19 04:52:15;;;;;;;4.75;2.58;;;;;;;12.11;69.03;99273.62;1731701;80;21067;-47
2022/09/19 04:54:47;;;;;;;5.20;2.75;;;;;;;12.14;68.99;99278.55;1739111;80;21146;-46
2022/09/19 04:57:13;;;;;;;5.55;2.75;;;;;;;12.09;68.89;99281.69;1745674;80;21079;-47
2022/09/19 04:59:42;;;;;;;5.58;2.92;;;;;;;12.07;69.09;99291.57;1741231;80;21102;-48
2022/09/19 05:02:08;;;;;;;5.50;2.65;;;;;;;12.02;69.06;99297.31;1734055;80;21055;-47
2022/09/19 05:04:35;;;;;;;5.58;2.27;;;;;;;12.05;69.19;99296.16;1737332;80;20992;-48
2022/09/19 05:07:02;;;;;;;5.72;3.02;;;;;;;12.13;69.21;99292.23;1735686;80;21249;-48
2022/09/19 05:09:30;;;;;;;5.67;3.12;;;;;;;12.17;69.06;99300.64;1732776;81;21067;-48
2022/09/19 05:11:58;;;;;;;5.30;2.80;;;;;;;12.18;69.02;99314.17;1730893;80;21062;-47
2022/09/19 05:14:28;;;;;;;6.90;3.05;;;;;;;12.17;69.13;99304.12;1740270;80;21118;-47
2022/09/19 05:16:56;;;;;;;5.28;2.80;;;;;;;12.17;68.90;99320.42;1735867;80;21097;-47
2022/09/19 05:19:23;;;;;;;7.25;3.25;;;;;;;12.18;69.04;99316.81;1733318;80;21226;-48
2022/09/19 05:21:51;;;;;;;5.35;2.85;;;;;;;12.24;69.15;99317.50;1736925;80;21070;-46
2022/09/19 05:24:18;;;;;;;5.30;3.15;;;;;;;12.29;68.91;99316.53;1723798;80;21068;-47
2022/09/19 05:26:46;;;;;;;5.80;3.37;;;;;;;12.31;68.16;99322.97;1735067;80;21177;-48
2022/09/19 05:29:14;;;;;;;10.90;3.47;;;;;;;12.30;68.43;99333.17;1728936;80;21582;-48
2022/09/19 05:31:48;;;;;;;5.12;2.85;;;;;;;12.30;68.36;99331.85;1723005;80;21279;-47
2022/09/19 05:34:16;;;;;;;5.83;2.90;;;;;;;12.31;68.34;99340.92;1731053;80;21090;-45
2022/09/19 05:36:47;;;;;;;6.55;3.22;;;;;;;12.42;68.24;99346.39;1729956;80;21190;-48
2022/09/19 05:39:23;;;;;;;5.65;3.10;;;;;;;12.47;67.82;99336.69;1736889;80;21083;-48
2022/09/19 05:41:55;;;;;;;7.35;3.37;;;;;;;12.48;67.78;99364.23;1734935;80;21134;-48
2022/09/19 05:44:23;;;;;;;5.62;3.20;;;;;;;12.44;67.90;99355.81;1731897;80;21779;-48
2022/09/19 05:46:52;;;;;;;6.42;2.90;;;;;;;12.42;67.93;99376.73;1736259;80;21483;-49
2022/09/19 05:49:19;;;;;;;6.22;3.60;;;;;;;12.42;67.89;99366.18;1713958;80;21055;-48
2022/09/19 05:51:46;;;;;;;7.83;3.10;;;;;;;12.45;68.07;99389.11;1714379;81;21055;-50
2022/09/19 05:54:15;;;;;;;6.42;3.25;;;;;;;12.48;68.06;99388.48;1732532;80;21031;-48
2022/09/19 05:56:50;;;;;;;5.75;3.75;;;;;;;12.43;68.32;99389.77;1730696;80;21546;-49
2022/09/19 05:59:14;;;;;;;6.87;3.35;;;;;;;12.38;68.65;99404.43;1739866;80;21043;-48
2022/09/19 06:01:43;;;;;;;6.95;3.55;;;;;;;12.37;68.73;99398.81;1735742;80;21039;-48
2022/09/19 06:04:11;;;;;;;5.80;3.52;;;;;;;12.39;68.87;99412.19;1729196;80;21078;-49
2022/09/19 06:06:40;;;;;;;6.45;3.75;;;;;;;12.38;68.88;99407.88;1735584;80;21640;-46
2022/09/19 06:09:07;;;;;;;6.65;3.50;;;;;;;12.36;69.24;99413.81;1734457;80;21196;-46
2022/09/19 06:11:37;;;;;;;6.65;4.35;;;;;;;12.32;69.30;99424.33;1735658;80;21506;-47
2022/09/19 06:14:17;;;;;;;6.35;3.72;;;;;;;12.24;69.36;99429.59;1732984;80;21096;-46
2022/09/19 06:16:47;;;;;;;6.30;3.55;;;;;;;12.24;69.91;99440.14;1733764;80;21588;-46
2022/09/19 06:19:31;;;;;;;6.40;4.08;;;;;;;12.29;69.89;99451.52;1734083;80;21055;-47
2022/09/19 06:22:07;;;;;;;7.95;4.12;;;;;;;12.28;69.85;99440.16;1735296;80;21539;-46
2022/09/19 06:24:36;;;;;;;6.65;3.47;;;;;;;12.24;70.06;99450.70;1736576;80;21095;-46
2022/09/19 06:27:04;;;;;;;8.18;3.98;;;;;;;12.21;70.02;99453.64;1736689;81;21063;-47
2022/09/19 06:29:31;;;;;;;7.35;3.90;;;;;;;12.22;69.93;99465.36;1736775;80;21559;-47
2022/09/19 06:32:15;;;;;;;10.28;4.30;;;;;;;12.29;69.72;99457.64;1733625;80;21098;-46
2022/09/19 06:34:43;;;;;;;6.17;3.30;;;;;;;12.34;69.70;99461.96;1733521;80;21191;-46
2022/09/19 06:37:12;;;;;;;6.55;3.90;;;;;;;12.38;69.54;99467.75;1734052;80;21066;-47
2022/09/19 06:39:39;;;;;;;6.35;3.70;;;;;;;12.42;69.52;99469.92;1748823;80;21647;-46
2022/09/19 06:42:23;;;;;;;6.80;3.33;;;;;;;12.51;69.11;99479.16;1741102;80;21045;-47
2022/09/19 06:44:52;;;;;;;6.40;3.62;;;;;;;12.63;67.78;99483.20;1742635;80;21058;-46
2022/09/19 06:47:27;;;;;;;;;;;;;;;12.67;67.50;99497.72;1752216;80;21143;-46
2022/09/19 06:49:55;;;;;;;6.70;3.80;;;;;;;12.67;67.37;99494.27;1748377;80;20144;-47
2022/09/19 06:52:32;;;;;;;6.17;3.20;;;;;;;12.61;67.65;99489.14;1748606;80;21068;-46
2022/09/19 06:55:01;;;;;;;5.55;2.72;;;;;;;12.62;67.36;99505.29;1754078;80;21097;-47
2022/09/19 06:57:28;;;;;;;6.20;3.20;;;;;;;12.69;67.35;99495.75;1731138;80;21109;-47
2022/09/19 06:59:55;;;;;;;4.92;2.60;;;;;;;12.79;67.29;99499.12;1747834;80;21237;-49
2022/09/19 07:02:22;;;;;;;6.22;2.92;;;;;;;12.88;66.80;99506.58;1748377;80;21070;-47
2022/09/19 07:04:49;;;;;;;4.80;2.80;;;;;;;12.94;65.98;99500.63;1744466;80;21435;-47
2022/09/19 07:07:31;;;;;;;6.35;2.77;;;;;;;13.05;66.00;99499.53;1748706;80;21055;-47
2022/09/19 07:09:59;;;;;;;4.87;2.37;;;;;;;13.11;65.33;99493.61;1749852;80;21125;-47
2022/09/19 07:12:25;;;;;;;4.78;2.40;;;;;;;13.14;65.08;99498.55;1757480;80;21144;-47
2022/09/19 07:14:54;;;;;;;4.92;2.42;;;;;;;13.27;65.18;99511.81;1746598;80;21717;-47
2022/09/19 07:17:20;;;;;;;5.60;3.00;;;;;;;13.36;64.63;99507.74;1749020;80;21109;-47
2022/09/19 07:19:48;;;;;;;4.40;2.30;;;;;;;13.43;64.19;99526.89;1751655;80;21553;-47
2022/09/19 07:22:19;;;;;;;4.62;2.05;;;;;;;13.43;63.65;99555.48;1735828;80;21102;-47
2022/09/19 07:24:49;;;;;;;5.20;2.12;;;;;;;13.41;63.62;99511.19;1741822;80;21778;-47
2022/09/19 07:27:34;;;;;;;4.00;1.87;;;;;;;13.43;63.57;99534.81;1743376;80;21015;-47
2022/09/19 07:30:01;;;;;;;3.98;1.98;;;;;;;13.43;63.01;99527.73;1740155;80;21090;-47
2022/09/19 07:32:28;;;;;;;4.33;2.00;;;;;;;13.44;62.48;99531.20;1747958;80;21501;-47
2022/09/19 07:34:55;;;;;;;4.25;1.98;;;;;;;13.46;61.65;99541.92;1749776;80;21114;-47
2022/09/19 07:37:22;;;;;;;4.83;2.12;;;;;;;13.50;62.63;99541.95;1738836;80;21201;-47
2022/09/19 07:39:51;;;;;;;4.12;1.82;;;;;;;13.49;62.62;99552.17;1692459;82;21061;-47
2022/09/19 07:42:25;;;;;;;5.80;1.80;;;;;;;13.45;61.87;99542.08;1696203;80;21558;-47
2022/09/19 07:44:59;;;;;;;4.42;2.00;;;;;;;13.37;62.22;99551.66;1739205;80;21050;-48
2022/09/19 07:47:46;;;;;;;5.17;1.98;;;;;;;13.34;62.46;99577.58;1724528;81;21006;-47
2022/09/19 07:50:18;;;;;;;5.70;1.92;;;;;;;13.29;61.96;99561.34;1730230;80;21375;-46
2022/09/19 07:53:02;;;;;;;4.35;1.90;;;;;;;13.24;61.79;99577.67;1728144;80;21026;-48
2022/09/19 07:55:31;;;;;;;4.53;1.50;;;;;;;13.27;61.71;99569.94;1746639;80;21119;-47
2022/09/19 07:57:59;;;;;;;4.05;1.82;;;;;;;13.31;61.99;99566.78;1753310;81;21129;-47
2022/09/19 08:00:28;;;;;;;7.50;2.80;;;;;;;13.31;62.25;99577.36;1742007;80;21567;-47
2022/09/19 08:03:01;;;;;;;6.33;2.37;;;;;;;13.30;62.61;99573.08;1739826;81;21092;-47
2022/09/19 08:05:35;;;;;;;9.00;2.50;;;;;;;13.27;62.50;99580.00;1736187;80;21058;-47
2022/09/19 08:08:02;;;;;;;4.87;2.58;;;;;;;13.24;62.90;99596.16;1729168;81;21090;-47
2022/09/19 08:10:30;;;;;;;5.70;2.22;;;;;;;13.22;62.69;99586.25;1755469;80;21089;-47
2022/09/19 08:13:02;;;;;;;5.60;2.35;;;;;;;13.22;63.09;99593.36;1745100;81;21079;-47
2022/09/19 08:15:29;;;;;;;6.50;3.12;;;;;;;13.27;63.18;99593.70;1742822;80;21134;-46
2022/09/19 08:18:02;;;;;;;5.50;3.08;;;;;;;13.38;62.17;99602.67;1746678;80;21130;-47
2022/09/19 08:20:32;;;;;;;4.42;2.30;;;;;;;13.41;62.02;99591.79;1750787;80;21010;-47
2022/09/19 08:23:01;;;;;;;6.53;2.87;;;;;;;13.44;62.05;99607.33;1731819;80;21098;-47
2022/09/19 08:25:30;;;;;;;7.33;3.45;;;;;;;13.47;62.34;99597.77;1740714;80;21118;-47
2022/09/19 08:27:57;;;;;;;6.40;3.08;;;;;;;13.51;62.46;99626.83;1735101;80;21209;-48
2022/09/19 08:30:24;;;;;;;7.35;3.72;;;;;;;13.53;61.37;99606.38;1737163;80;21023;-47
2022/09/19 08:32:51;;;;;;;5.17;3.15;;;;;;;13.58;62.05;99605.05;1739035;81;21074;-47
2022/09/19 08:35:19;;;;;;;6.20;2.70;;;;;;;13.62;61.46;99616.48;1734999;80;21110;-47
2022/09/19 08:37:46;;;;;;;6.80;2.60;;;;;;;13.66;61.52;99615.66;1729643;80;21612;-47
2022/09/19 08:40:16;;;;;;;7.42;2.90;;;;;;;13.72;60.89;99618.98;1736181;80;21258;-47
2022/09/19 08:43:15;;;;;;;5.65;2.83;;;;;;;13.83;60.65;99604.61;1746469;80;21035;-47
2022/09/19 08:46:15;;;;;;;6.30;2.90;;;;;;;13.86;60.36;99617.01;1736041;80;21056;-48
2022/09/19 08:49:02;;;;;;;5.15;2.67;;;;;;;13.88;60.99;99619.49;1735011;80;21079;-48
2022/09/19 08:51:54;;;;;;;6.87;2.80;;;;;;;13.89;60.44;99616.69;1727239;80;21130;-48
2022/09/19 08:54:33;;;;;;;5.08;2.90;;;;;;;13.85;59.92;99618.02;1735410;80;21272;-47
2022/09/19 08:57:02;;;;;;;6.45;3.35;;;;;;;13.85;60.32;99618.49;1734745;80;21106;-47
2022/09/19 08:59:39;;;;;;;7.50;3.42;;;;;;;13.87;60.22;99619.15;1734171;80;21078;-46
2022/09/19 09:02:37;;;;;;;5.78;3.10;;;;;;;13.92;60.07;99628.77;1730054;80;21039;-47
2022/09/19 09:05:14;;;;;;;6.15;3.52;;;;;;;13.94;59.61;99630.25;1736994;80;21597;-48
2022/09/19 09:08:28;;;;;;;6.25;3.45;;;;;;;13.96;59.94;99634.56;1738009;80;21139;-47
2022/09/19 09:11:08;;;;;;;6.15;3.20;;;;;;;14.07;60.05;99649.63;1732717;80;21024;-46
2022/09/19 09:14:12;;;;;;;6.78;3.80;;;;;;;14.23;58.76;99642.18;1735013;80;21111;-46
2022/09/19 09:17:03;;;;;;;7.62;3.83;;;;;;;14.34;59.52;99652.95;1733259;80;21759;-46
2022/09/19 09:20:11;;;;;;;5.30;2.90;;;;;;;14.49;57.29;99655.73;1741088;80;21065;-46
2022/09/19 09:22:45;;;;;;;6.25;3.50;;;;;;;14.60;56.82;99643.52;1737742;80;22019;-46
2022/09/19 09:25:29;;;;;;;10.08;3.77;;;;;;;14.72;55.81;99640.55;1724600;80;21063;-46
2022/09/19 09:28:09;;;;;;;8.10;3.30;;;;;;;14.79;56.60;99656.08;1740804;80;21075;-46
2022/09/19 09:30:41;;;;;;;7.45;3.40;;;;;;;14.78;54.83;99647.83;1735452;80;21459;-47
2022/09/19 09:33:30;;;;;;;6.60;3.30;;;;;;;14.74;55.57;99648.63;1727492;80;21114;-46
2022/09/19 09:36:08;;;;;;;6.35;3.40;;;;;;;14.71;55.16;99664.88;1734722;80;21136;-46
2022/09/19 09:38:47;;;;;;;6.35;3.00;;;;;;;14.67;54.55;99644.50;1737347;81;21098;-49
2022/09/19 09:41:50;;;;;;;6.75;3.12;;;;;;;14.68;54.55;99654.62;1750212;80;21085;-46
2022/09/19 09:44:53;;;;;;;;;;;;;;;14.67;54.82;99663.03;1743723;80;21058;-47
2022/09/19 09:47:54;;;;;;;5.62;2.92;;;;;;;14.66;55.14;99658.75;1753442;80;20273;-46
2022/09/19 09:50:39;;;;;;;7.80;3.10;;;;;;;14.72;55.26;99670.48;1755436;80;21244;-47
2022/09/19 09:53:41;;;;;;;5.80;2.77;;;;;;;14.76;55.01;99659.91;1721616;80;21077;-47
2022/09/19 09:56:17;;;;;;;6.78;3.37;;;;;;;14.83;55.30;99661.39;1745725;80;21113;-46
2022/09/19 09:59:00;;;;;;;5.95;2.85;;;;;;;14.89;54.76;99671.80;1741382;80;21046;-47
2022/09/19 10:04:48;;;;;;;4.53;2.58;;;;;;;15.05;53.66;99688.48;1743954;80;21480;-47
2022/09/19 10:07:31;;;;;;;7.35;3.08;;;;;;;15.11;53.37;99681.67;1753755;80;21340;-47
2022/09/19 10:10:07;;;;;;;6.67;2.83;;;;;;;15.15;53.44;99686.98;1761784;80;21624;-46
2022/09/19 10:13:05;;;;;;;6.35;2.83;;;;;;;15.19;53.12;99687.46;1751313;80;21094;-46
2022/09/19 10:15:32;;;;;;;5.30;2.40;;;;;;;15.21;52.44;99684.13;1749916;80;21039;-46
2022/09/19 10:18:09;;;;;;;6.53;2.60;;;;;;;15.23;52.34;99699.36;1752266;80;21150;-46
2022/09/19 10:20:42;;;;;;;6.58;3.05;;;;;;;15.25;52.91;99692.09;1753576;80;21054;-46
2022/09/19 10:23:13;;;;;;;8.60;2.50;;;;;;;15.29;52.64;99701.34;1754267;80;21019;-46
2022/09/19 10:25:40;;;;;;;5.37;2.70;;;;;;;15.26;50.78;99702.19;1745164;80;21089;-46
2022/09/19 10:28:27;;;;;;;9.90;2.67;;;;;;;15.20;51.76;99711.65;1746644;80;21047;-46
2022/09/19 10:31:34;;;;;;;5.22;3.00;;;;;;;15.19;51.31;99715.28;1670041;84;21370;-46
2022/09/19 10:34:29;;;;;;;5.60;2.52;;;;;;;15.24;50.92;99708.98;1735397;80;21008;-46
2022/09/19 10:36:53;;;;;;;4.70;2.60;;;;;;;15.32;50.86;99701.01;1745529;80;21011;-46
2022/09/19 10:39:22;;;;;;;5.85;2.77;;;;;;;15.48;50.18;99716.02;1749410;80;21067;-46
2022/09/19 10:41:49;;;;;;;6.00;2.65;;;;;;;15.59;49.41;99713.00;1743113;80;21094;-47
2022/09/19 10:44:24;;;;;;;8.15;3.15;;;;;;;15.67;49.71;99713.96;1739116;80;21116;-46
2022/09/19 10:46:56;;;;;;;8.90;3.08;;;;;;;15.66;49.01;99710.48;1739513;80;21545;-47
2022/09/19 10:49:48;;;;;;;8.38;2.90;;;;;;;15.59;49.29;99717.48;1733799;80;21780;-46
2022/09/19 10:52:30;;;;;;;7.78;2.80;;;;;;;15.54;49.51;99718.50;1734084;80;21530;-46
2022/09/19 10:54:54;;;;;;;6.53;2.62;;;;;;;15.51;49.63;99739.55;1735175;80;21099;-46
2022/09/19 10:57:45;;;;;;;6.62;2.67;;;;;;;15.52;49.90;99728.46;1702807;80;21150;-46
2022/09/19 11:00:29;;;;;;;5.55;2.75;;;;;;;15.53;50.20;99733.59;1731417;81;21032;-47
2022/09/19 11:03:01;;;;;;;6.62;2.27;;;;;;;15.60;50.76;99735.03;1731509;80;21072;-47
2022/09/19 11:05:33;;;;;;;8.25;2.95;;;;;;;15.77;50.30;99735.86;1724197;80;21177;-47
2022/09/19 11:08:00;;;;;;;8.20;2.60;;;;;;;15.94;50.07;99745.89;1733558;80;21051;-47
2022/09/19 11:10:40;;;;;;;10.25;3.02;;;;;;;16.02;49.24;99745.00;1733050;80;21132;-48
2022/09/19 11:13:17;;;;;;;6.12;2.72;;;;;;;16.02;49.24;99758.27;1735590;80;21098;-49
2022/09/19 11:16:19;;;;;;;4.62;2.33;;;;;;;15.94;48.11;99759.16;1736937;80;21059;-47
2022/09/19 11:19:19;;;;;;;6.00;2.30;;;;;;;15.89;48.45;99761.50;1733481;80;21055;-47
2022/09/19 11:22:17;;;;;;;5.53;2.80;;;;;;;15.81;48.67;99761.02;1724999;80;21130;-47
2022/09/19 11:25:09;;;;;;;5.33;2.35;;;;;;;15.77;48.97;99777.79;1729380;80;21181;-46
2022/09/19 11:28:12;;;;;;;8.73;3.80;;;;;;;15.77;48.29;99771.66;1730670;80;21059;-47
2022/09/19 11:31:05;;;;;;;4.65;2.30;;;;;;;15.79;49.17;99773.13;1732361;80;21047;-47
2022/09/19 11:33:57;;;;;;;10.05;2.17;;;;;;;15.87;48.44;99767.45;1729503;80;21070;-46
2022/09/19 11:37:03;;;;;;;;;;;;;;;15.92;48.30;99772.59;1732999;80;21094;-46
2022/09/19 11:40:01;;;;;;;6.05;2.45;;;;;;;15.94;48.40;99783.03;1729910;80;21856;-46
2022/09/19 11:42:55;;;;;;;5.75;2.87;;;;;;;15.92;48.41;99781.03;1741635;80;21058;-46
2022/09/19 11:45:22;;;;;;;3.87;1.67;;;;;;;15.91;48.86;99785.52;1747129;80;21133;-46
2022/09/19 11:48:17;;;;;;;4.97;2.20;;;;;;;15.90;48.00;99783.88;1744442;80;21731;-47
2022/09/19 11:51:01;;;;;;;6.28;2.22;;;;;;;15.91;48.10;99778.07;1735899;80;21098;-46
2022/09/19 11:53:56;;;;;;;6.28;2.33;;;;;;;15.90;47.94;99779.05;1744846;80;21321;-46
2022/09/19 11:56:50;;;;;;;4.83;1.62;;;;;;;15.91;47.54;99782.05;1742013;80;21121;-46
2022/09/19 11:59:31;;;;;;;7.30;1.80;;;;;;;15.89;47.21;99785.38;1741449;80;21125;-46
2022/09/19 12:02:37;;;;;;;4.75;1.55;;;;;;;15.87;47.47;99788.20;1747062;80;21191;-46
2022/09/19 12:06:01;;;;;;;4.33;1.70;;;;;;;15.87;47.57;99783.38;1742508;80;21001;-46
2022/09/19 12:09:01;;;;;;;5.67;1.75;;;;;;;15.88;48.09;99776.58;1746352;80;22044;-46
2022/09/19 12:11:56;;;;;;;4.03;1.22;;;;;;;15.94;47.50;99787.84;1747133;80;21034;-46
2022/09/19 12:14:47;;;;;;;7.33;1.72;;;;;;;15.98;45.54;99780.35;1746124;80;21117;-46
2022/09/19 12:17:24;;;;;;;6.15;1.60;;;;;;;16.03;45.76;99783.82;1747491;80;21519;-46
2022/09/19 12:19:57;;;;;;;3.33;1.00;;;;;;;16.04;43.94;99800.05;1741788;80;21109;-46
2022/09/19 12:22:28;;;;;;;7.62;1.35;;;;;;;16.14;43.97;99796.72;1744812;80;22313;-46
2022/09/19 12:25:20;;;;;;;4.47;1.40;;;;;;;16.22;44.13;99795.83;1753113;80;21368;-45